Time;durP1;ratioP1;P1;durP2;ratioP2;P2;SDS_P1;SDS_P2;PMS_P1;PMS_P2;Temp;Humidity;BMP_temperature;BMP_pressure;BME280_temperature;BME280_humidity;BME280_pressure;Samples;Min_cycle;Max_cycle;Signal;HPM_P1;HPM_P2
2022/09/25 00:00:53;;;;;;;;;;;;;;;20.84;57.74;101753.41;7281334;19;152569;-61
2022/09/25 00:03:22;;;;;;;;;;;;;;;20.82;57.82;101762.13;7287935;19;153502;-60
2022/09/25 00:05:51;;;;;;;;;;;;;;;20.82;57.41;101764.91;7283494;19;153092;-61
2022/09/25 00:08:19;;;;;;;;;;;;;;;20.81;57.39;101763.22;7280954;19;153801;-60
2022/09/25 00:11:00;;;;;;;;;;;;;;;20.80;57.46;101760.75;7277237;19;152673;-60
2022/09/25 00:13:28;;;;;;;;;;;;;;;20.80;57.44;101764.34;7268173;19;154891;-59
2022/09/25 00:16:01;;;;;;;;;;;;;;;20.80;57.64;101755.13;7277060;19;152793;-60
2022/09/25 00:21:19;;;;;;;;;;;;;;;20.78;57.66;101765.78;7280138;19;152598;-60
2022/09/25 00:23:49;;;;;;;;;;;;;;;20.78;57.79;101765.78;7281619;19;152555;-60
2022/09/25 00:26:19;;;;;;;;;;;;;;;20.78;57.73;101768.59;7281135;19;152920;-60
2022/09/25 00:28:46;;;;;;;;;;;;;;;20.77;57.30;101766.91;7279945;19;153750;-60
2022/09/25 00:31:23;;;;;;;;;;;;;;;20.77;57.39;101770.56;7280509;19;153445;-58
2022/09/25 00:33:50;;;;;;;;;;;;;;;20.78;57.47;101779.84;7278023;19;152138;-58
2022/09/25 00:36:27;;;;;;;;;;;;;;;20.78;57.47;101777.88;7278309;19;153495;-57
2022/09/25 00:38:57;;;;;;;;;;;;;;;20.79;57.62;101787.97;7277320;19;153311;-58
2022/09/25 00:41:26;;;;;;;;;;;;;;;20.79;57.91;101782.38;7280541;19;152988;-58
2022/09/25 00:43:55;;;;;;;;;;;;;;;20.79;57.89;101787.97;7276638;19;154067;-58
2022/09/25 00:46:32;;;;;;;;;;;;;;;20.80;57.79;101786.00;7284223;19;154293;-58
2022/09/25 00:49:15;;;;;;;;;;;;;;;20.80;58.07;101784.03;7276659;19;153680;-58
2022/09/25 00:51:48;;;;;;;;;;;;;;;20.80;57.61;101797.25;7278937;19;153910;-58
2022/09/25 00:54:26;;;;;;;;;;;;;;;20.78;57.54;101791.91;7278443;19;152286;-58
2022/09/25 00:57:09;;;;;;;;;;;;;;;20.80;57.91;101800.06;7279623;19;152778;-58
2022/09/25 00:59:45;;;;;;;;;;;;;;;20.79;57.69;101787.97;7273450;19;152551;-58
2022/09/25 01:02:23;;;;;;;;;;;;;;;20.80;57.67;101795.25;7278041;19;153170;-57
2022/09/25 01:04:51;;;;;;;;;;;;;;;20.80;57.68;101797.25;7278999;19;152490;-58
2022/09/25 01:07:28;;;;;;;;;;;;;;;20.80;57.66;101800.88;7282490;19;152233;-58
2022/09/25 01:10:01;;;;;;;;;;;;;;;20.79;58.17;101799.22;7288870;19;154270;-58
2022/09/25 01:12:29;;;;;;;;;;;;;;;20.85;58.07;101789.59;7280176;19;153268;-60
2022/09/25 01:14:57;;;;;;;;;;;;;;;20.81;57.95;101799.75;7277132;19;153209;-60
2022/09/25 01:17:57;;;;;;;;;;;;;;;20.81;58.27;101790.47;7281685;19;154263;-60
2022/09/25 01:20:35;;;;;;;;;;;;;;;20.81;58.01;101782.91;7282088;19;153185;-60
2022/09/25 01:23:25;;;;;;;;;;;;;;;20.82;58.27;101783.75;7280536;19;153665;-60
2022/09/25 01:26:12;;;;;;;;;;;;;;;20.82;57.80;101793.00;7279211;19;152133;-60
2022/09/25 01:29:00;;;;;;;;;;;;;;;20.80;58.07;101792.44;7275393;19;152562;-60
2022/09/25 01:32:01;;;;;;;;;;;;;;;20.81;58.00;101791.31;7284861;19;152245;-60
2022/09/25 01:34:47;;;;;;;;;;;;;;;20.81;58.01;101793.28;7287377;19;153356;-60
2022/09/25 01:37:22;;;;;;;;;;;;;;;20.81;57.84;101784.88;7285810;19;152145;-60
2022/09/25 01:40:13;;;;;;;;;;;;;;;20.79;58.13;101785.19;7283141;19;152377;-60
2022/09/25 01:42:51;;;;;;;;;;;;;;;20.80;58.29;101784.03;7283481;19;152681;-60
2022/09/25 01:45:24;;;;;;;;;;;;;;;20.80;58.26;101789.63;7277832;19;153214;-60
2022/09/25 01:47:51;;;;;;;;;;;;;;;20.79;58.15;101785.19;7284527;19;152374;-60
2022/09/25 01:50:26;;;;;;;;;;;;;;;20.79;57.86;101787.97;7281368;19;152862;-60
2022/09/25 01:53:01;;;;;;;;;;;;;;;20.79;58.30;101784.34;7284110;19;151868;-60
2022/09/25 01:55:28;;;;;;;;;;;;;;;20.78;58.08;101788.25;7283615;19;153158;-60
2022/09/25 01:58:04;;;;;;;;;;;;;;;20.79;57.93;101792.75;7291282;19;152472;-59
2022/09/25 02:00:38;;;;;;;;;;;;;;;20.79;58.18;101787.97;7281012;19;153453;-59
2022/09/25 02:03:17;;;;;;;;;;;;;;;20.78;58.01;101786.28;7282439;19;154572;-59
2022/09/25 02:05:53;;;;;;;;;;;;;;;20.78;57.87;101780.69;7282140;19;152827;-60
2022/09/25 02:08:34;;;;;;;;;;;;;;;20.77;57.87;101779.00;7284191;19;152684;-60
2022/09/25 02:11:04;;;;;;;;;;;;;;;20.77;58.23;101783.78;7279956;19;153873;-60
2022/09/25 02:13:38;;;;;;;;;;;;;;;20.76;58.47;101785.72;7282883;19;152317;-60
2022/09/25 02:16:16;;;;;;;;;;;;;;;20.77;58.03;101786.56;7276863;19;152831;-59
2022/09/25 02:21:50;;;;;;;;;;;;;;;20.75;58.21;101789.69;7292038;19;152049;-60
2022/09/25 02:25:02;;;;;;;;;;;;;;;20.75;58.11;101780.44;7276829;19;156804;-60
2022/09/25 02:27:31;;;;;;;;;;;;;;;20.75;58.33;101791.66;7280445;19;152021;-59
2022/09/25 02:30:00;;;;;;;;;;;;;;;20.74;58.13;101785.19;7266803;19;153388;-60
2022/09/25 02:32:31;;;;;;;;;;;;;;;20.73;58.60;101783.50;7272356;19;152191;-59
2022/09/25 02:34:58;;;;;;;;;;;;;;;20.72;58.30;101781.81;7279216;19;153029;-59
2022/09/25 02:37:28;;;;;;;;;;;;;;;20.73;58.61;101779.84;7283308;19;152769;-59
2022/09/25 02:39:59;;;;;;;;;;;;;;;20.72;58.22;101795.03;7274880;19;152512;-60
2022/09/25 02:42:47;;;;;;;;;;;;;;;20.72;58.37;101784.63;7288705;19;152345;-60
2022/09/25 02:45:29;;;;;;;;;;;;;;;20.71;58.54;101788.59;7276782;19;153402;-60
2022/09/25 02:48:06;;;;;;;;;;;;;;;20.72;58.45;101787.44;7281679;19;152507;-60
2022/09/25 02:51:01;;;;;;;;;;;;;;;20.72;58.58;101789.41;7280308;19;153588;-60
2022/09/25 02:53:36;;;;;;;;;;;;;;;20.71;58.22;101794.22;7278439;19;154267;-61
2022/09/25 02:56:13;;;;;;;;;;;;;;;20.70;58.46;101789.72;7280545;19;151934;-61
2022/09/25 02:58:49;;;;;;;;;;;;;;;20.71;58.34;101785.78;7279193;19;152014;-61
2022/09/25 03:01:18;;;;;;;;;;;;;;;20.70;58.81;101786.91;7276872;19;152388;-61
2022/09/25 03:03:48;;;;;;;;;;;;;;;20.70;58.67;101789.72;7280220;19;152172;-61
2022/09/25 03:06:15;;;;;;;;;;;;;;;20.69;58.35;101793.66;7285389;19;153473;-61
2022/09/25 03:08:45;;;;;;;;;;;;;;;20.69;58.62;101792.81;7280630;19;152462;-61
2022/09/25 03:11:16;;;;;;;;;;;;;;;20.70;58.39;101800.09;7281430;19;153381;-61
2022/09/25 03:13:45;;;;;;;;;;;;;;;20.70;58.55;101797.31;7279922;19;152330;-61
2022/09/25 03:16:19;;;;;;;;;;;;;;;20.69;58.77;101796.47;7280794;19;151862;-62
2022/09/25 03:18:47;;;;;;;;;;;;;;;20.68;58.50;101800.38;7278325;19;152592;-61
2022/09/25 03:21:16;;;;;;;;;;;;;;;20.69;58.43;101804.88;7279315;19;153991;-61
2022/09/25 03:23:45;;;;;;;;;;;;;;;20.68;58.49;101800.38;7285059;19;152407;-62
2022/09/25 03:26:12;;;;;;;;;;;;;;;20.69;58.60;101795.63;7287187;19;153624;-62
2022/09/25 03:28:46;;;;;;;;;;;;;;;20.68;58.79;101794.78;7291030;19;152420;-61
2022/09/25 03:31:16;;;;;;;;;;;;;;;20.68;58.82;101799.53;7287518;19;153938;-61
2022/09/25 03:33:44;;;;;;;;;;;;;;;20.67;58.66;101795.88;7283376;19;153449;-60
2022/09/25 03:36:17;;;;;;;;;;;;;;;20.67;58.74;101801.50;7288280;19;154092;-60
2022/09/25 03:38:52;;;;;;;;;;;;;;;20.66;58.92;101794.25;7285278;19;153684;-59
2022/09/25 03:41:20;;;;;;;;;;;;;;;20.65;58.83;101792.56;7282341;19;153184;-59
2022/09/25 03:43:50;;;;;;;;;;;;;;;20.66;58.99;101790.59;7283505;19;151915;-59
2022/09/25 03:46:20;;;;;;;;;;;;;;;20.65;58.80;101789.75;7284727;19;152263;-59
2022/09/25 03:48:48;;;;;;;;;;;;;;;20.65;58.89;101794.50;7284347;19;154355;-60
2022/09/25 03:51:17;;;;;;;;;;;;;;;20.64;58.87;101793.66;7293017;19;155318;-60
2022/09/25 03:53:44;;;;;;;;;;;;;;;20.65;58.61;101794.50;7282703;19;153158;-60
2022/09/25 03:56:17;;;;;;;;;;;;;;;20.64;58.83;101785.25;7288940;19;152053;-60
2022/09/25 03:58:46;;;;;;;;;;;;;;;20.64;59.03;101788.06;7285686;19;152706;-60
2022/09/25 04:01:15;;;;;;;;;;;;;;;20.64;58.85;101788.06;7281446;19;154015;-60
2022/09/25 04:03:46;;;;;;;;;;;;;;;20.65;58.72;101786.09;7285125;19;152634;-59
2022/09/25 04:06:18;;;;;;;;;;;;;;;20.62;58.77;101783.88;7282814;19;152761;-59
2022/09/25 04:08:47;;;;;;;;;;;;;;;20.63;59.10;101786.38;7283255;19;153041;-59
2022/09/25 04:11:17;;;;;;;;;;;;;;;20.63;58.89;101788.34;7282720;19;152639;-59
2022/09/25 04:13:45;;;;;;;;;;;;;;;20.62;59.11;101784.72;7291057;19;152355;-59
2022/09/25 04:16:12;;;;;;;;;;;;;;;20.62;59.06;101787.53;7285437;19;152852;-59
2022/09/25 04:18:41;;;;;;;;;;;;;;;20.63;59.07;101783.56;7285318;19;153424;-59
2022/09/25 04:21:11;;;;;;;;;;;;;;;20.62;58.66;101778.25;7284474;19;153761;-59
2022/09/25 04:23:39;;;;;;;;;;;;;;;20.62;58.86;101779.09;7284808;19;152454;-60
2022/09/25 04:26:06;;;;;;;;;;;;;;;20.60;58.85;101774.88;7284560;19;152171;-60
2022/09/25 04:28:34;;;;;;;;;;;;;;;20.60;59.09;101772.06;7283633;19;154263;-60
2022/09/25 04:31:02;;;;;;;;;;;;;;;20.60;59.02;101772.91;7282998;19;152333;-60
2022/09/25 04:33:46;;;;;;;;;;;;;;;20.60;58.73;101772.06;7282567;19;152821;-60
2022/09/25 04:36:17;;;;;;;;;;;;;;;20.59;59.04;101771.22;7293086;19;151729;-60
2022/09/25 04:38:45;;;;;;;;;;;;;;;20.60;58.66;101767.31;7283411;19;153735;-60
2022/09/25 04:41:18;;;;;;;;;;;;;;;20.59;59.02;101768.41;7282513;19;152664;-59
2022/09/25 04:44:00;;;;;;;;;;;;;;;20.58;58.99;101766.75;7280228;19;154151;-59
2022/09/25 04:46:43;;;;;;;;;;;;;;;20.58;58.88;101765.94;7281155;19;152876;-60
2022/09/25 04:49:15;;;;;;;;;;;;;;;20.58;59.11;101761.13;7281626;19;152802;-60
2022/09/25 04:51:41;;;;;;;;;;;;;;;20.58;58.66;101760.31;7285246;19;152142;-60
2022/09/25 04:54:10;;;;;;;;;;;;;;;20.57;58.97;101767.06;7282782;19;152616;-60
2022/09/25 04:56:39;;;;;;;;;;;;;;;20.56;58.76;101757.78;7290585;19;153345;-60
2022/09/25 04:59:07;;;;;;;;;;;;;;;20.57;58.69;101753.84;7283338;19;153326;-60
2022/09/25 05:01:37;;;;;;;;;;;;;;;20.56;58.98;101754.97;7280766;19;153289;-60
2022/09/25 05:04:06;;;;;;;;;;;;;;;20.56;58.83;101760.59;7283973;19;152459;-60
2022/09/25 05:06:34;;;;;;;;;;;;;;;20.57;58.74;101767.06;7282068;19;154453;-60
2022/09/25 05:09:02;;;;;;;;;;;;;;;20.56;58.73;101759.75;7282260;19;152956;-60
2022/09/25 05:11:28;;;;;;;;;;;;;;;20.55;58.68;101750.47;7285249;19;151859;-60
2022/09/25 05:13:55;;;;;;;;;;;;;;;20.55;58.99;101761.72;7283523;19;153370;-60
2022/09/25 05:16:24;;;;;;;;;;;;;;;20.55;58.73;101760.88;7281602;19;153242;-60
2022/09/25 05:18:51;;;;;;;;;;;;;;;20.56;59.01;101765.34;7288899;19;152393;-60
2022/09/25 05:21:18;;;;;;;;;;;;;;;20.56;58.78;101770.97;7283225;19;153107;-59
2022/09/25 05:23:45;;;;;;;;;;;;;;;20.54;58.99;101756.38;7282735;19;152567;-59
2022/09/25 05:26:12;;;;;;;;;;;;;;;20.53;59.25;101760.34;7284066;19;153557;-60
2022/09/25 05:28:39;;;;;;;;;;;;;;;20.52;58.97;101753.03;7281544;19;153287;-59
2022/09/25 05:31:06;;;;;;;;;;;;;;;20.52;58.86;101765.09;7283647;19;152583;-60
2022/09/25 05:33:35;;;;;;;;;;;;;;;20.53;59.26;101760.34;7281204;19;153604;-60
2022/09/25 05:36:03;;;;;;;;;;;;;;;20.51;59.15;101757.81;7283494;19;154352;-60
2022/09/25 05:38:33;;;;;;;;;;;;;;;20.51;59.02;101763.41;7283211;19;152049;-59
2022/09/25 05:41:02;;;;;;;;;;;;;;;20.51;58.85;101759.78;7291051;19;153156;-59
2022/09/25 05:43:29;;;;;;;;;;;;;;;20.51;58.90;101760.59;7276989;19;153367;-59
2022/09/25 05:45:56;;;;;;;;;;;;;;;20.50;59.19;101758.94;7282576;19;154031;-59
2022/09/25 05:48:23;;;;;;;;;;;;;;;20.50;59.39;101767.34;7282606;19;154744;-60
2022/09/25 05:50:50;;;;;;;;;;;;;;;20.49;59.31;101762.03;7283981;19;152325;-60
2022/09/25 05:53:17;;;;;;;;;;;;;;;20.50;59.48;101760.88;7283463;19;152493;-60
2022/09/25 05:55:49;;;;;;;;;;;;;;;20.49;59.44;101757.25;7282732;19;154912;-60
2022/09/25 05:58:16;;;;;;;;;;;;;;;20.49;59.24;101765.66;7282881;19;152266;-61
2022/09/25 06:00:47;;;;;;;;;;;;;;;20.49;58.96;101774.09;7279640;19;153647;-60
2022/09/25 06:03:13;;;;;;;;;;;;;;;20.48;59.17;101769.63;7289676;19;156016;-60
2022/09/25 06:05:40;;;;;;;;;;;;;;;20.47;58.92;101767.94;7282982;19;153469;-60
2022/09/25 06:08:07;;;;;;;;;;;;;;;20.47;59.44;101770.75;7282251;19;153149;-60
2022/09/25 06:10:34;;;;;;;;;;;;;;;20.48;59.04;101778.03;7283118;19;151481;-60
2022/09/25 06:13:03;;;;;;;;;;;;;;;20.48;59.05;101780.00;7283396;19;155505;-60
2022/09/25 06:15:38;;;;;;;;;;;;;;;20.46;59.37;101783.09;7281179;19;153709;-60
2022/09/25 06:18:05;;;;;;;;;;;;;;;20.46;59.15;101779.44;7281563;19;153346;-60
2022/09/25 06:20:32;;;;;;;;;;;;;;;20.45;59.40;101778.59;7278052;19;153873;-60
2022/09/25 06:23:08;;;;;;;;;;;;;;;20.44;59.14;101779.75;7281762;19;153998;-60
2022/09/25 06:25:35;;;;;;;;;;;;;;;20.45;59.21;101778.59;7288966;19;152831;-60
2022/09/25 06:28:02;;;;;;;;;;;;;;;20.43;59.42;101783.69;7281941;19;154383;-61
2022/09/25 06:30:33;;;;;;;;;;;;;;;20.43;59.15;101786.47;7278852;19;153358;-60
2022/09/25 06:33:00;;;;;;;;;;;;;;;20.44;59.46;101785.38;7281035;19;152814;-60
2022/09/25 06:35:30;;;;;;;;;;;;;;;20.43;59.10;101780.88;7271918;19;153093;-60
2022/09/25 06:37:57;;;;;;;;;;;;;;;20.43;59.04;101783.69;7276491;19;151834;-60
2022/09/25 06:40:27;;;;;;;;;;;;;;;20.42;59.41;101782.00;7276380;19;153124;-60
2022/09/25 06:42:58;;;;;;;;;;;;;;;20.41;59.37;101781.16;7273451;19;153683;-60
2022/09/25 06:45:25;;;;;;;;;;;;;;;20.41;59.38;101780.31;7280685;19;152185;-60
2022/09/25 06:47:56;;;;;;;;;;;;;;;20.41;59.43;101786.75;7275810;19;154339;-60
2022/09/25 06:50:24;;;;;;;;;;;;;;;20.41;59.27;101788.72;7280539;19;151870;-59
2022/09/25 06:52:51;;;;;;;;;;;;;;;20.40;59.19;101787.88;7282617;19;152790;-59
2022/09/25 06:55:18;;;;;;;;;;;;;;;20.40;59.15;101789.84;7279776;19;153339;-59
2022/09/25 06:57:44;;;;;;;;;;;;;;;20.39;59.58;101785.38;7284906;19;152535;-59
2022/09/25 07:00:11;;;;;;;;;;;;;;;20.40;59.67;101782.28;7286091;19;153338;-59
2022/09/25 07:05:25;;;;;;;;;;;;;;;20.45;59.64;101780.56;7287226;19;151981;-59
2022/09/25 07:07:53;;;;;;;;;;;;;;;20.52;60.36;101781.09;7291732;19;152739;-59
2022/09/25 07:10:21;;;;;;;;;;;;;;;20.55;60.54;101780.53;7286807;19;151928;-60
2022/09/25 07:12:49;;;;;;;;;;;;;;;20.57;60.91;101784.72;7286591;19;153323;-60
2022/09/25 07:15:17;;;;;;;;;;;;;;;20.63;60.90;101788.34;7285976;19;154097;-60
2022/09/25 07:17:44;;;;;;;;;;;;;;;20.67;60.48;101784.66;7287765;19;154507;-60
2022/09/25 07:20:14;;;;;;;;;;;;;;;20.68;60.71;101783.53;7287394;19;153273;-60
2022/09/25 07:22:41;;;;;;;;;;;;;;;20.73;60.89;101779.84;7286663;19;153447;-60
2022/09/25 07:25:08;;;;;;;;;;;;;;;20.75;60.37;101781.28;7287639;19;152309;-61
2022/09/25 07:27:35;;;;;;;;;;;;;;;20.77;60.29;101779.00;7286114;19;153507;-60
2022/09/25 07:30:03;;;;;;;;;;;;;;;20.80;60.24;101778.41;7293032;19;154807;-60
2022/09/25 07:32:30;;;;;;;;;;;;;;;20.83;60.06;101772.22;7286636;19;153457;-60
2022/09/25 07:34:57;;;;;;;;;;;;;;;20.85;60.21;101778.38;7285815;19;153876;-60
2022/09/25 07:37:24;;;;;;;;;;;;;;;20.86;60.07;101791.28;7288304;19;151979;-60
2022/09/25 07:39:50;;;;;;;;;;;;;;;20.90;59.71;101785.94;7285196;19;152894;-60
2022/09/25 07:42:17;;;;;;;;;;;;;;;20.93;59.68;101785.38;7286311;19;153149;-60
2022/09/25 07:44:44;;;;;;;;;;;;;;;20.96;59.43;101786.75;7287504;19;153075;-60
2022/09/25 07:47:15;;;;;;;;;;;;;;;21.00;59.59;101785.03;7285236;19;153609;-60
2022/09/25 07:49:42;;;;;;;;;;;;;;;21.02;59.16;101788.41;7285535;19;154259;-60
2022/09/25 07:52:09;;;;;;;;;;;;;;;21.03;59.42;101790.91;7295794;19;152987;-60
2022/09/25 07:54:36;;;;;;;;;;;;;;;21.04;59.26;101792.59;7285480;19;154100;-60
2022/09/25 07:57:03;;;;;;;;;;;;;;;21.06;59.45;101797.91;7286754;19;154257;-60
2022/09/25 07:59:29;;;;;;;;;;;;;;;21.09;58.90;101791.72;7286124;19;152732;-59
2022/09/25 08:01:56;;;;;;;;;;;;;;;21.11;59.04;101784.69;7285737;19;153922;-60
2022/09/25 08:04:23;;;;;;;;;;;;;;;21.11;59.48;101795.06;7283919;19;152642;-59
2022/09/25 08:06:50;;;;;;;;;;;;;;;21.12;59.47;101789.16;7287646;19;153431;-60
2022/09/25 08:09:17;;;;;;;;;;;;;;;21.14;59.41;101788.91;7282056;19;153559;-60
2022/09/25 08:11:44;;;;;;;;;;;;;;;21.12;59.49;101786.34;7288781;19;151986;-60
2022/09/25 08:14:13;;;;;;;;;;;;;;;21.12;59.61;101788.34;7292551;19;153510;-59
2022/09/25 08:16:40;;;;;;;;;;;;;;;21.16;58.98;101786.66;7287188;19;151663;-59
2022/09/25 08:19:06;;;;;;;;;;;;;;;21.17;58.87;101791.97;7286125;19;153683;-60
2022/09/25 08:21:33;;;;;;;;;;;;;;;21.16;58.82;101795.06;7286905;19;154367;-60
2022/09/25 08:24:00;;;;;;;;;;;;;;;21.15;58.90;101797.03;7285070;19;152510;-60
2022/09/25 08:26:28;;;;;;;;;;;;;;;21.17;58.84;101805.16;7288595;19;152730;-60
2022/09/25 08:28:55;;;;;;;;;;;;;;;21.17;59.54;101806.00;7284288;19;154039;-60
2022/09/25 08:31:22;;;;;;;;;;;;;;;21.19;59.51;101808.53;7287355;19;152636;-60
2022/09/25 08:33:49;;;;;;;;;;;;;;;21.17;59.23;101805.16;7285927;19;153537;-59
2022/09/25 08:36:16;;;;;;;;;;;;;;;21.17;60.08;101807.97;7294538;19;153439;-60
2022/09/25 08:38:44;;;;;;;;;;;;;;;21.16;59.79;101800.69;7285485;19;152526;-60
2022/09/25 08:41:28;;;;;;;;;;;;;;;21.16;59.61;101803.50;7285358;19;154740;-58
2022/09/25 08:43:57;;;;;;;;;;;;;;;21.23;58.98;101801.19;7283424;19;154383;-58
2022/09/25 08:49:19;;;;;;;;;;;;;;;21.27;57.47;101805.09;7285185;19;154256;-58
2022/09/25 08:51:48;;;;;;;;;;;;;;;21.28;57.33;101804.81;7281424;19;152444;-58
2022/09/25 08:54:18;;;;;;;;;;;;;;;21.31;57.64;101809.00;7285509;19;152860;-58
2022/09/25 08:56:47;;;;;;;;;;;;;;;21.25;56.01;101807.38;7286002;19;154436;-61
2022/09/25 08:59:33;;;;;;;;;;;;;;;21.21;55.02;101804.28;7283214;19;153388;-58
2022/09/25 09:02:12;;;;;;;;;;;;;;;21.12;51.91;101810.81;7282010;19;152535;-58
2022/09/25 09:04:45;;;;;;;;;;;;;;;21.05;50.76;101813.94;7284150;19;151949;-58
2022/09/25 09:07:17;;;;;;;;;;;;;;;21.05;48.30;101808.31;7272458;19;152119;-57
2022/09/25 09:10:01;;;;;;;;;;;;;;;20.96;48.50;101803.59;7274727;19;154110;-58
2022/09/25 09:12:42;;;;;;;;;;;;;;;21.01;48.49;101804.41;7283312;19;153226;-58
2022/09/25 09:15:23;;;;;;;;;;;;;;;20.99;48.33;101797.38;7283276;19;153816;-57
2022/09/25 09:17:54;;;;;;;;;;;;;;;20.98;47.36;101796.56;7280487;19;153526;-57
2022/09/25 09:20:35;;;;;;;;;;;;;;;20.90;47.29;101794.34;7290092;19;152636;-57
2022/09/25 09:23:22;;;;;;;;;;;;;;;20.85;47.55;101792.41;7283245;19;152659;-57
2022/09/25 09:26:06;;;;;;;;;;;;;;;20.90;47.08;101801.94;7285715;19;154474;-58
2022/09/25 09:28:52;;;;;;;;;;;;;;;20.86;46.38;101802.53;7278618;19;152507;-57
2022/09/25 09:31:33;;;;;;;;;;;;;;;20.84;46.45;101798.34;7282311;19;154251;-58
2022/09/25 09:34:27;;;;;;;;;;;;;;;20.85;46.23;101803.66;7279563;19;153370;-57
2022/09/25 09:37:19;;;;;;;;;;;;;;;20.86;45.81;101794.09;7284443;19;154586;-57
2022/09/25 09:40:06;;;;;;;;;;;;;;;20.82;46.02;101795.81;7282115;19;153154;-57
2022/09/25 09:42:42;;;;;;;;;;;;;;;20.85;45.95;101785.97;7284000;19;152745;-58
2022/09/25 09:45:20;;;;;;;;;;;;;;;20.79;45.58;101787.97;7290468;19;152529;-58
2022/09/25 09:47:46;;;;;;;;;;;;;;;20.79;45.73;101792.75;7282616;19;152982;-57
2022/09/25 09:50:19;;;;;;;;;;;;;;;20.73;45.34;101789.13;7282870;19;152667;-57
2022/09/25 09:52:48;;;;;;;;;;;;;;;20.77;45.29;101783.78;7284297;19;153380;-58
2022/09/25 09:55:20;;;;;;;;;;;;;;;20.73;45.36;101775.09;7283091;19;152507;-58
2022/09/25 09:58:03;;;;;;;;;;;;;;;20.71;45.04;101770.91;7285240;19;152673;-57
2022/09/25 10:00:31;;;;;;;;;;;;;;;20.69;44.04;101774.00;7278380;19;154724;-57
2022/09/25 10:03:09;;;;;;;;;;;;;;;20.71;44.82;101785.78;7283020;19;152110;-57
2022/09/25 10:05:45;;;;;;;;;;;;;;;20.68;44.61;101774.28;7283434;19;151873;-57
2022/09/25 10:08:12;;;;;;;;;;;;;;;20.63;44.60;101771.50;7286126;19;154175;-57
2022/09/25 10:10:43;;;;;;;;;;;;;;;20.57;44.76;101776.31;7279851;19;153722;-57
2022/09/25 10:13:25;;;;;;;;;;;;;;;20.55;44.41;101770.13;7277076;19;154383;-57
2022/09/25 10:15:56;;;;;;;;;;;;;;;20.56;43.83;101762.56;7282228;19;152630;-57
2022/09/25 10:18:24;;;;;;;;;;;;;;;20.54;43.32;101764.78;7281597;19;154295;-58
2022/09/25 10:20:52;;;;;;;;;;;;;;;20.57;43.80;101761.44;7280939;19;153941;-57
2022/09/25 10:23:25;;;;;;;;;;;;;;;20.59;43.20;101765.63;7285100;19;152107;-57
2022/09/25 10:25:53;;;;;;;;;;;;;;;20.59;43.57;101759.16;7283097;19;153802;-57
2022/09/25 10:28:26;;;;;;;;;;;;;;;20.56;42.58;101763.41;7279468;19;153931;-57
2022/09/25 10:30:58;;;;;;;;;;;;;;;20.55;42.02;101744.88;7289847;19;151958;-58
2022/09/25 10:33:27;;;;;;;;;;;;;;;20.50;42.00;101746.84;7285979;19;154017;-58
2022/09/25 10:35:55;;;;;;;;;;;;;;;20.49;42.10;101745.19;7289092;19;152142;-57
2022/09/25 10:39:01;;;;;;;;;;;;;;;20.50;41.65;101733.66;7288856;19;153814;-57
2022/09/25 10:41:48;;;;;;;;;;;;;;;20.48;41.45;101737.91;7284394;19;152590;-58
2022/09/25 10:44:27;;;;;;;;;;;;;;;20.47;40.46;101733.41;7283825;19;152339;-57
2022/09/25 10:50:10;;;;;;;;;;;;;;;20.49;42.89;101719.94;7280988;19;153957;-58
2022/09/25 10:52:50;;;;;;;;;;;;;;;20.50;44.46;101725.25;7285957;19;152125;-57
2022/09/25 10:55:30;;;;;;;;;;;;;;;20.48;43.92;101729.47;7291408;19;153290;-58
2022/09/25 10:58:01;;;;;;;;;;;;;;;20.52;44.21;101713.72;7288599;19;152121;-58
2022/09/25 11:00:28;;;;;;;;;;;;;;;20.48;43.42;101709.81;7284006;19;153361;-57
2022/09/25 11:03:01;;;;;;;;;;;;;;;20.44;42.85;101712.38;7288581;19;153441;-58
2022/09/25 11:05:46;;;;;;;;;;;;;;;20.47;42.78;101703.38;7286858;19;151962;-58
2022/09/25 11:08:38;;;;;;;;;;;;;;;20.52;43.43;101708.13;7284298;19;154259;-58
2022/09/25 11:11:20;;;;;;;;;;;;;;;20.56;44.36;101709.22;7282421;19;152795;-57
2022/09/25 11:13:54;;;;;;;;;;;;;;;20.58;45.22;101692.94;7282727;19;152148;-58
2022/09/25 11:16:21;;;;;;;;;;;;;;;20.55;45.10;101685.91;7294855;19;152470;-58
2022/09/25 11:18:49;;;;;;;;;;;;;;;20.50;43.03;101682.28;7286298;19;151778;-57
2022/09/25 11:21:37;;;;;;;;;;;;;;;20.57;44.75;101694.06;7284314;19;153721;-57
2022/09/25 11:24:16;;;;;;;;;;;;;;;20.54;45.05;101686.19;7285594;19;154436;-57
2022/09/25 11:26:53;;;;;;;;;;;;;;;20.54;44.41;101687.03;7288286;19;152074;-57
2022/09/25 11:29:37;;;;;;;;;;;;;;;20.53;43.68;101674.16;7283515;19;154080;-58
2022/09/25 11:32:16;;;;;;;;;;;;;;;20.56;42.24;101673.56;7286221;19;154524;-58
2022/09/25 11:35:03;;;;;;;;;;;;;;;20.59;42.01;101666.50;7283814;19;152582;-58
2022/09/25 11:37:36;;;;;;;;;;;;;;;20.63;42.56;101671.25;7287870;19;152727;-57
2022/09/25 11:42:58;;;;;;;;;;;;;;;20.55;41.09;101671.88;7287772;19;153718;-58
2022/09/25 11:45:46;;;;;;;;;;;;;;;20.51;40.96;101667.97;7284444;19;153439;-58
2022/09/25 11:48:37;;;;;;;;;;;;;;;20.53;40.60;101670.50;7285160;19;151988;-58
2022/09/25 11:51:11;;;;;;;;;;;;;;;20.49;40.46;101660.97;7286000;19;152754;-57
2022/09/25 11:53:51;;;;;;;;;;;;;;;20.44;39.03;101653.44;7283778;19;153707;-58
2022/09/25 11:56:17;;;;;;;;;;;;;;;20.41;39.03;101648.38;7285372;19;151738;-58
2022/09/25 11:58:59;;;;;;;;;;;;;;;20.33;39.38;101647.03;7285784;19;153478;-58
2022/09/25 12:01:55;;;;;;;;;;;;;;;20.36;38.91;101640.00;7285763;19;154535;-58
2022/09/25 12:04:43;;;;;;;;;;;;;;;20.36;39.42;101638.03;7291520;19;152458;-57
2022/09/25 12:07:28;;;;;;;;;;;;;;;20.38;40.15;101632.13;7281378;19;152714;-57
2022/09/25 12:10:11;;;;;;;;;;;;;;;20.47;41.13;101623.94;7279241;19;152139;-57
2022/09/25 12:12:38;;;;;;;;;;;;;;;20.50;41.67;101620.53;7281175;19;152540;-57
2022/09/25 12:15:24;;;;;;;;;;;;;;;20.54;41.61;101619.66;7282929;19;153411;-58
2022/09/25 12:17:53;;;;;;;;;;;;;;;20.54;42.49;101619.66;7282617;19;152639;-58
2022/09/25 12:20:26;;;;;;;;;;;;;;;20.49;42.41;101607.66;7282643;19;153309;-57
2022/09/25 12:23:03;;;;;;;;;;;;;;;20.47;40.83;101610.72;7283385;19;152723;-57
2022/09/25 12:25:46;;;;;;;;;;;;;;;20.45;40.44;101601.75;7282187;19;152107;-57
2022/09/25 12:28:20;;;;;;;;;;;;;;;20.46;41.22;101603.44;7288700;19;153485;-57
2022/09/25 12:31:05;;;;;;;;;;;;;;;20.45;39.44;101600.91;7283266;19;153870;-57
2022/09/25 12:33:46;;;;;;;;;;;;;;;20.42;38.01;101597.56;7284101;19;153378;-57
2022/09/25 12:36:17;;;;;;;;;;;;;;;20.39;37.47;101594.53;7283013;19;153909;-58
2022/09/25 12:39:00;;;;;;;;;;;;;;;20.41;38.53;101600.66;7281759;19;152001;-58
2022/09/25 12:41:33;;;;;;;;;;;;;;;20.30;38.49;101594.31;7283702;19;152845;-57
2022/09/25 12:44:18;;;;;;;;;;;;;;;20.32;39.51;101596.81;7268635;19;153890;-58
2022/09/25 12:47:04;;;;;;;;;;;;;;;20.27;39.51;101579.97;7270611;19;154675;-57
2022/09/25 12:49:36;;;;;;;;;;;;;;;20.25;39.57;101580.28;7278010;19;152428;-57
2022/09/25 12:52:11;;;;;;;;;;;;;;;20.28;38.72;101582.50;7277078;19;153928;-57
2022/09/25 12:54:46;;;;;;;;;;;;;;;20.32;38.96;101575.19;7278278;19;153526;-57
2022/09/25 12:57:17;;;;;;;;;;;;;;;20.34;38.52;101580.53;7279578;19;154102;-57
2022/09/25 12:59:57;;;;;;;;;;;;;;;20.29;38.94;101574.91;7278849;19;152299;-57
2022/09/25 13:02:23;;;;;;;;;;;;;;;20.29;38.28;101572.94;7282705;19;152447;-57
2022/09/25 13:05:01;;;;;;;;;;;;;;;20.29;37.74;101572.94;7278625;19;152711;-57
2022/09/25 13:07:35;;;;;;;;;;;;;;;20.27;39.11;101555.53;7282266;19;152425;-58
2022/09/25 13:10:16;;;;;;;;;;;;;;;20.25;38.31;101565.41;7277950;19;153496;-58
2022/09/25 13:12:44;;;;;;;;;;;;;;;20.23;38.56;101560.06;7274456;19;154022;-58
2022/09/25 13:15:11;;;;;;;;;;;;;;;20.17;37.60;101558.41;7287927;19;152640;-58